createdAt,value
2022-11-14T00:02:38.716Z,4.10
2022-11-14T00:05:24.508Z,4.30
2022-11-14T00:08:21.501Z,4.70
2022-11-14T00:11:07.309Z,4.50
2022-11-14T00:13:53.114Z,4.30
2022-11-14T00:16:38.547Z,3.90
2022-11-14T00:19:24.249Z,3.50
2022-11-14T00:22:09.935Z,3.50
2022-11-14T00:24:55.619Z,3.30
2022-11-14T00:27:41.307Z,2.10
2022-11-14T00:30:27.502Z,2.10
2022-11-14T00:33:18.682Z,2.90
2022-11-14T00:36:05.609Z,2.70
2022-11-14T00:38:54.731Z,2.50
2022-11-14T00:41:41.427Z,2.70
2022-11-14T00:44:27.187Z,3.50
2022-11-14T00:47:12.905Z,2.20
2022-11-14T00:49:58.630Z,2.20
2022-11-14T00:52:44.542Z,2.70
2022-11-14T00:55:30.075Z,3.00
2022-11-14T00:58:15.840Z,2.40
2022-11-14T01:01:01.431Z,2.70
2022-11-14T01:03:53.299Z,2.80
2022-11-14T01:06:39.108Z,2.10
2022-11-14T01:09:24.701Z,2.30
2022-11-14T01:12:10.477Z,2.80
2022-11-14T01:14:56.179Z,2.20
2022-11-14T01:17:42.182Z,3.00
2022-11-14T01:20:27.599Z,2.70
2022-11-14T01:23:14.649Z,2.30
2022-11-14T01:26:08.043Z,2.20
2022-11-14T01:28:53.672Z,2.00
2022-11-14T01:31:39.520Z,2.40
2022-11-14T01:34:25.274Z,2.40
2022-11-14T01:37:10.849Z,2.60
2022-11-14T01:39:56.429Z,2.40
2022-11-14T01:42:42.326Z,2.10
2022-11-14T01:45:53.302Z,1.70
2022-11-14T01:48:42.948Z,2.30
2022-11-14T01:51:31.831Z,2.30
2022-11-14T01:54:28.785Z,2.60
2022-11-14T01:57:15.268Z,2.40
2022-11-14T02:00:03.525Z,1.70
2022-11-14T02:02:49.313Z,1.80
2022-11-14T02:05:35.106Z,1.90
2022-11-14T02:08:21.017Z,2.40
2022-11-14T02:11:06.802Z,2.30
2022-11-14T02:13:52.498Z,2.90
2022-11-14T02:16:39.886Z,2.40
2022-11-14T02:19:25.469Z,1.90
2022-11-14T02:22:11.152Z,1.70
2022-11-14T02:24:56.841Z,2.50
2022-11-14T02:27:42.646Z,2.10
2022-11-14T02:30:28.612Z,2.60
2022-11-14T02:33:15.322Z,2.50
2022-11-14T02:36:00.905Z,1.70
2022-11-14T02:38:46.539Z,2.00
2022-11-14T02:41:32.180Z,2.50
2022-11-14T02:44:18.292Z,2.20
2022-11-14T02:47:04.560Z,2.10
2022-11-14T02:49:50.040Z,2.60
2022-11-14T02:52:35.826Z,2.20
2022-11-14T02:55:21.715Z,1.70
2022-11-14T02:58:07.743Z,2.20
2022-11-14T03:01:19.065Z,2.20
2022-11-14T03:03:59.468Z,3.40
2022-11-14T03:06:45.240Z,3.70
2022-11-14T03:09:30.908Z,3.50
2022-11-14T03:12:20.195Z,3.10
2022-11-14T03:15:06.839Z,3.80
2022-11-14T03:17:52.228Z,3.60
2022-11-14T03:20:37.647Z,3.30
2022-11-14T03:23:23.337Z,3.20
2022-11-14T03:26:09.839Z,3.30
2022-11-14T03:28:55.632Z,2.20
2022-11-14T03:31:41.319Z,2.20
2022-11-14T03:34:27.027Z,3.10
2022-11-14T03:37:12.706Z,3.30
2022-11-14T03:39:58.369Z,3.30
2022-11-14T03:42:44.244Z,3.90
2022-11-14T03:45:30.040Z,2.60
2022-11-14T03:48:15.731Z,4.20
2022-11-14T03:51:01.520Z,4.70
2022-11-14T03:53:47.222Z,7.10
2022-11-14T03:56:33.052Z,21.00
2022-11-14T03:59:18.880Z,13.80
2022-11-14T04:02:04.665Z,4.50
2022-11-14T04:04:50.339Z,48.00
2022-11-14T04:07:36.328Z,18.60
2022-11-14T04:10:21.942Z,21.10
2022-11-14T04:13:07.566Z,178.10
2022-11-14T04:15:57.246Z,102.20
2022-11-14T04:18:43.115Z,74.20
2022-11-14T04:21:29.090Z,25.70
2022-11-14T04:24:14.581Z,25.50
2022-11-14T04:27:00.157Z,89.30
2022-11-14T04:29:45.903Z,43.50
2022-11-14T04:32:31.890Z,51.70
2022-11-14T04:35:17.369Z,54.30
2022-11-14T04:38:03.165Z,28.40
2022-11-14T04:40:52.616Z,23.30
2022-11-14T04:43:38.215Z,16.20
2022-11-14T04:46:24.001Z,20.40
2022-11-14T04:49:09.696Z,11.60
2022-11-14T04:51:55.289Z,8.10
2022-11-14T04:54:41.053Z,6.10
2022-11-14T04:57:26.635Z,3.60
2022-11-14T05:00:13.331Z,3.50
2022-11-14T05:03:00.223Z,3.80
2022-11-14T05:05:45.646Z,3.90
2022-11-14T05:08:31.910Z,2.80
2022-11-14T05:11:19.483Z,3.00
2022-11-14T05:14:05.006Z,7.30
2022-11-14T05:16:50.719Z,3.60
2022-11-14T05:19:36.115Z,3.40
2022-11-14T05:22:21.574Z,3.60
2022-11-14T05:25:08.185Z,7.80
2022-11-14T05:27:54.002Z,7.50
2022-11-14T05:30:39.664Z,8.20
2022-11-14T05:33:25.223Z,8.80
2022-11-14T05:36:13.007Z,4.80
2022-11-14T05:38:58.861Z,14.80
2022-11-14T05:41:44.458Z,24.30
2022-11-14T05:44:30.246Z,15.50
2022-11-14T05:47:16.015Z,11.50
2022-11-14T05:50:01.597Z,12.40
2022-11-14T05:52:47.177Z,17.60
2022-11-14T05:55:32.590Z,12.20
2022-11-14T05:58:18.769Z,7.70
2022-11-14T06:01:08.951Z,5.10
2022-11-14T06:03:54.621Z,4.10
2022-11-14T06:06:40.203Z,3.30
2022-11-14T06:09:26.093Z,5.90
2022-11-14T06:12:11.828Z,3.60
2022-11-14T06:14:57.624Z,5.90
2022-11-14T06:17:43.352Z,3.90
2022-11-14T06:20:29.135Z,4.30
2022-11-14T06:23:14.919Z,7.30
2022-11-14T06:26:01.748Z,7.30
2022-11-14T06:28:47.955Z,4.40
2022-11-14T06:31:33.757Z,3.50
2022-11-14T06:34:19.602Z,2.90
2022-11-14T06:37:05.489Z,6.80
2022-11-14T06:39:51.037Z,3.40
2022-11-14T06:42:36.357Z,3.80
2022-11-14T06:45:22.265Z,3.30
2022-11-14T06:48:07.861Z,2.90
2022-11-14T06:50:57.312Z,4.20
2022-11-14T06:53:43.087Z,4.20
2022-11-14T06:56:28.360Z,3.40
2022-11-14T06:59:14.522Z,3.40
2022-11-14T07:02:00.235Z,3.10
2022-11-14T07:04:46.841Z,4.30
2022-11-14T07:07:32.591Z,3.80
2022-11-14T07:10:18.135Z,3.70
2022-11-14T07:13:03.891Z,2.20
2022-11-14T07:15:51.522Z,2.20
2022-11-14T07:18:37.198Z,2.60
2022-11-14T07:21:23.093Z,2.60
2022-11-14T07:24:08.680Z,2.80
2022-11-14T07:26:54.258Z,3.50
2022-11-14T07:29:40.190Z,3.50
2022-11-14T07:32:25.932Z,3.20
2022-11-14T07:35:11.484Z,3.10
2022-11-14T07:38:03.902Z,3.60
2022-11-14T07:41:13.741Z,4.40
2022-11-14T07:43:59.390Z,8.50
2022-11-14T07:46:44.975Z,8.70
2022-11-14T07:49:30.988Z,5.70
2022-11-14T07:52:16.610Z,4.60
2022-11-14T07:55:02.338Z,3.90
2022-11-14T07:57:49.605Z,2.90
2022-11-14T08:00:35.988Z,2.90
2022-11-14T08:03:21.751Z,3.00
2022-11-14T08:06:09.362Z,3.90
2022-11-14T08:08:54.655Z,3.50
2022-11-14T08:11:49.551Z,4.20
2022-11-14T08:14:35.536Z,3.30
2022-11-14T08:17:22.242Z,4.40
2022-11-14T08:20:09.158Z,2.10
2022-11-14T08:23:02.826Z,3.20
2022-11-14T08:25:48.431Z,3.10
2022-11-14T08:28:34.416Z,4.20
2022-11-14T08:31:20.900Z,3.90
2022-11-14T08:34:06.789Z,4.20
2022-11-14T08:36:52.584Z,3.40
2022-11-14T08:39:38.061Z,3.10
2022-11-14T08:42:23.659Z,3.00
2022-11-14T08:45:09.839Z,2.70
2022-11-14T08:47:55.703Z,3.70
2022-11-14T08:50:41.510Z,3.80
2022-11-14T08:53:27.198Z,3.30
2022-11-14T08:56:12.488Z,3.20
2022-11-14T08:58:58.218Z,3.30
2022-11-14T09:01:43.880Z,3.00
2022-11-14T09:04:29.576Z,2.10
2022-11-14T09:07:15.483Z,2.80
2022-11-14T09:10:01.402Z,2.80
2022-11-14T09:12:47.091Z,3.00
2022-11-14T09:15:34.229Z,2.70
2022-11-14T09:18:19.990Z,2.70
2022-11-14T09:21:07.743Z,3.10
2022-11-14T09:23:57.431Z,2.40
2022-11-14T09:26:46.279Z,2.90
2022-11-14T09:29:31.740Z,3.10
2022-11-14T09:32:18.131Z,3.50
2022-11-14T09:35:04.034Z,2.80
2022-11-14T09:37:50.019Z,3.00
2022-11-14T09:40:57.624Z,3.40
2022-11-14T09:43:46.682Z,3.50
2022-11-14T09:46:34.403Z,3.90
2022-11-14T09:49:38.660Z,3.10
2022-11-14T09:55:36.230Z,4.10
2022-11-14T09:58:23.133Z,4.20
2022-11-14T10:01:34.358Z,4.40
2022-11-14T10:04:52.053Z,4.90
2022-11-14T10:07:59.642Z,4.70
2022-11-14T10:10:59.763Z,4.70
2022-11-14T10:14:07.469Z,5.40
2022-11-14T10:17:18.239Z,4.10
2022-11-14T10:20:26.258Z,5.20
2022-11-14T10:23:18.792Z,4.40
2022-11-14T10:26:08.058Z,16.10
2022-11-14T10:29:41.572Z,4.70
2022-11-14T10:32:48.855Z,4.40
2022-11-14T10:35:49.749Z,5.10
2022-11-14T10:38:39.167Z,3.10
2022-11-14T10:41:49.852Z,3.50
2022-11-14T10:44:34.398Z,8.60
2022-11-14T10:47:21.618Z,3.00
2022-11-14T10:50:20.904Z,3.20
2022-11-14T10:53:11.313Z,3.30
2022-11-14T10:56:04.027Z,2.60
2022-11-14T10:58:50.716Z,3.40
2022-11-14T11:01:44.410Z,2.70
2022-11-14T11:04:34.225Z,4.20
2022-11-14T11:08:02.846Z,3.70
2022-11-14T11:11:17.276Z,3.20
2022-11-14T11:14:03.261Z,3.40
2022-11-14T11:16:49.290Z,3.10
2022-11-14T11:19:35.149Z,3.70
2022-11-14T11:22:29.841Z,4.40
2022-11-14T11:25:25.045Z,4.70
2022-11-14T11:28:16.105Z,4.90
2022-11-14T11:31:06.668Z,5.10
2022-11-14T11:33:52.547Z,4.60
2022-11-14T11:36:41.310Z,3.20
2022-11-14T11:39:29.717Z,3.10
2022-11-14T11:42:23.234Z,3.20
2022-11-14T11:45:18.991Z,3.10
2022-11-14T11:48:11.056Z,2.90
2022-11-14T11:50:56.654Z,2.70
2022-11-14T11:53:48.487Z,2.70
2022-11-14T11:56:34.146Z,2.40
2022-11-14T11:59:40.820Z,2.50
2022-11-14T12:02:27.079Z,2.00
2022-11-14T12:05:17.842Z,2.50
2022-11-14T12:08:07.615Z,2.40
2022-11-14T12:10:53.128Z,2.20
2022-11-14T12:13:47.999Z,2.00
2022-11-14T12:16:43.023Z,2.60
2022-11-14T12:19:37.713Z,2.30
2022-11-14T12:22:59.020Z,2.40
2022-11-14T12:25:57.882Z,2.30
2022-11-14T12:28:59.569Z,2.40
2022-11-14T12:31:45.595Z,2.40
2022-11-14T12:34:42.510Z,2.80
2022-11-14T12:37:36.500Z,2.50
2022-11-14T12:40:33.555Z,2.50
2022-11-14T12:43:36.364Z,2.20
2022-11-14T12:46:23.354Z,3.10
2022-11-14T12:49:47.640Z,2.50
2022-11-14T12:52:54.355Z,2.50
2022-11-14T12:55:46.361Z,2.50
2022-11-14T12:58:55.172Z,2.80
2022-11-14T13:01:47.435Z,3.40
2022-11-14T13:04:42.818Z,3.30
2022-11-14T13:08:06.348Z,3.50
2022-11-14T13:10:51.735Z,4.00
2022-11-14T13:14:20.171Z,3.70
2022-11-14T13:17:40.573Z,3.50
2022-11-14T13:20:51.961Z,3.50
2022-11-14T13:23:40.805Z,3.20
2022-11-14T13:26:26.376Z,3.90
2022-11-14T13:29:40.323Z,16.60
2022-11-14T13:32:41.783Z,23.40
2022-11-14T13:35:49.395Z,57.70
2022-11-14T13:39:05.452Z,82.50
2022-11-14T13:42:06.767Z,106.40
2022-11-14T13:45:24.159Z,89.20
2022-11-14T13:48:28.378Z,35.00
2022-11-14T13:51:41.816Z,28.10
2022-11-14T13:54:21.857Z,26.60
2022-11-14T13:57:15.374Z,17.00
2022-11-14T14:00:07.369Z,18.10
2022-11-14T14:03:44.899Z,16.90
2022-11-14T14:06:52.932Z,17.00
2022-11-14T14:09:45.005Z,16.90
2022-11-14T14:12:31.097Z,12.50
2022-11-14T14:15:19.962Z,9.60
2022-11-14T14:18:21.304Z,9.30
2022-11-14T14:21:24.605Z,7.40
2022-11-14T14:24:48.271Z,8.70
2022-11-14T14:27:50.968Z,9.30
2022-11-14T14:30:36.744Z,8.70
2022-11-14T14:33:22.641Z,6.90
2022-11-14T14:36:21.982Z,6.20
2022-11-14T14:39:27.760Z,6.50
2022-11-14T14:42:13.416Z,6.20
2022-11-14T14:44:59.189Z,7.20
2022-11-14T14:47:47.502Z,5.60
2022-11-14T14:50:41.279Z,6.10
2022-11-14T14:53:31.803Z,6.50
2022-11-14T14:56:19.917Z,7.60
2022-11-14T14:59:18.906Z,8.80
2022-11-14T15:02:04.292Z,9.10
2022-11-14T15:04:49.982Z,8.70
2022-11-14T15:07:35.894Z,6.50
2022-11-14T15:10:26.692Z,7.90
2022-11-14T15:13:15.423Z,8.00
2022-11-14T15:16:03.291Z,8.80
2022-11-14T15:18:49.870Z,7.80
2022-11-14T15:21:35.451Z,7.50
2022-11-14T15:24:23.259Z,7.70
2022-11-14T15:27:13.563Z,5.00
2022-11-14T15:30:02.027Z,7.00
2022-11-14T15:32:49.917Z,8.60
2022-11-14T15:35:36.931Z,9.60
2022-11-14T15:41:30.032Z,8.70
2022-11-14T15:44:29.866Z,9.60
2022-11-14T15:47:29.067Z,5.10
2022-11-14T15:50:15.172Z,7.30
2022-11-14T15:53:02.895Z,8.90
2022-11-14T15:55:48.683Z,8.60
2022-11-14T15:58:34.387Z,8.50
2022-11-14T16:01:24.078Z,8.50
2022-11-14T16:04:19.045Z,9.20
2022-11-14T16:07:05.525Z,4.50
2022-11-14T16:09:51.371Z,6.20
2022-11-14T16:12:37.130Z,6.90
2022-11-14T16:15:22.839Z,8.00
2022-11-14T16:18:08.495Z,8.20
2022-11-14T16:20:58.836Z,8.50
2022-11-14T16:23:45.146Z,8.40
2022-11-14T16:26:31.583Z,5.10
2022-11-14T16:29:19.117Z,6.00
2022-11-14T16:32:05.129Z,8.00
2022-11-14T16:34:50.808Z,9.30
2022-11-14T16:37:36.505Z,9.80
2022-11-14T16:40:29.936Z,9.80
2022-11-14T16:43:15.722Z,10.60
2022-11-14T16:46:05.625Z,6.30
2022-11-14T16:48:51.426Z,9.90
2022-11-14T16:51:48.538Z,10.40
2022-11-14T16:54:35.257Z,9.40
2022-11-14T16:57:20.982Z,9.80
2022-11-14T17:00:11.077Z,10.40
2022-11-14T17:02:56.913Z,9.80
2022-11-14T17:05:47.541Z,4.90
2022-11-14T17:08:33.120Z,6.20
2022-11-14T17:11:18.913Z,7.90
2022-11-14T17:14:04.573Z,8.60
2022-11-14T17:16:50.347Z,9.60
2022-11-14T17:19:35.929Z,13.10
2022-11-14T17:22:21.836Z,11.90
2022-11-14T17:25:08.173Z,6.30
2022-11-14T17:27:53.839Z,5.80
2022-11-14T17:30:42.965Z,6.80
2022-11-14T17:33:29.277Z,7.60
2022-11-14T17:36:15.464Z,8.50
2022-11-14T17:39:01.040Z,8.60
2022-11-14T17:41:46.629Z,9.50
2022-11-14T17:44:32.622Z,5.20
2022-11-14T17:47:18.401Z,5.50
2022-11-14T17:50:05.004Z,7.50
2022-11-14T17:52:50.899Z,7.60
2022-11-14T17:55:36.679Z,8.10
2022-11-14T17:58:22.152Z,10.20
2022-11-14T18:01:15.377Z,8.60
2022-11-14T18:04:05.765Z,6.10
2022-11-14T18:06:53.019Z,9.30
2022-11-14T18:09:39.246Z,9.50
2022-11-14T18:12:24.925Z,9.50
2022-11-14T18:15:10.805Z,9.70
2022-11-14T18:17:56.289Z,11.10
2022-11-14T18:20:42.095Z,10.50
2022-11-14T18:23:28.302Z,10.20
2022-11-14T18:26:15.486Z,5.40
2022-11-14T18:29:02.291Z,7.00
2022-11-14T18:31:50.336Z,10.10
2022-11-14T18:34:40.979Z,10.30
2022-11-14T18:37:26.282Z,8.90
2022-11-14T18:40:16.600Z,9.70
2022-11-14T18:43:02.610Z,9.70
2022-11-14T18:45:48.292Z,6.50
2022-11-14T18:48:34.988Z,8.60
2022-11-14T18:51:23.334Z,9.10
2022-11-14T18:54:19.162Z,8.30
2022-11-14T18:57:05.766Z,10.90
2022-11-14T18:59:51.385Z,10.60
2022-11-14T19:02:37.239Z,8.90
2022-11-14T19:05:22.840Z,7.10
2022-11-14T19:08:08.513Z,7.00
2022-11-14T19:10:54.690Z,7.60
2022-11-14T19:13:41.619Z,5.00
2022-11-14T19:16:27.494Z,6.20
2022-11-14T19:19:13.587Z,6.70
2022-11-14T19:21:59.373Z,6.30
2022-11-14T19:24:48.143Z,6.40
2022-11-14T19:27:34.568Z,7.10
2022-11-14T19:30:20.181Z,6.00
2022-11-14T19:33:05.901Z,5.10
2022-11-14T19:35:51.797Z,6.50
2022-11-14T19:38:37.496Z,7.20
2022-11-14T19:41:26.949Z,7.40
2022-11-14T19:44:12.980Z,6.90
2022-11-14T19:46:58.309Z,5.80
2022-11-14T19:49:44.220Z,3.60
2022-11-14T19:52:29.803Z,7.60
2022-11-14T19:55:15.606Z,7.50
2022-11-14T19:58:01.166Z,7.40
2022-11-14T20:00:46.978Z,8.90
2022-11-14T20:03:32.989Z,9.00
2022-11-14T20:06:21.949Z,5.70
2022-11-14T20:09:09.021Z,7.20
2022-11-14T20:11:54.589Z,7.50
2022-11-14T20:14:40.372Z,7.40
2022-11-14T20:17:25.858Z,6.00
2022-11-14T20:20:11.643Z,5.80
2022-11-14T20:22:57.531Z,6.70
2022-11-14T20:25:43.210Z,9.30
2022-11-14T20:28:28.921Z,9.60
2022-11-14T20:31:18.879Z,8.10
2022-11-14T20:34:04.799Z,9.10
2022-11-14T20:39:57.846Z,7.90
2022-11-14T20:42:48.124Z,9.00
2022-11-14T20:45:33.772Z,7.80
2022-11-14T20:48:19.546Z,8.30
2022-11-14T20:51:07.431Z,9.00
2022-11-14T20:53:54.669Z,5.80
2022-11-14T20:56:40.450Z,7.60
2022-11-14T20:59:26.181Z,7.30
2022-11-14T21:02:12.011Z,6.00
2022-11-14T21:04:58.403Z,6.50
2022-11-14T21:07:44.413Z,7.70
2022-11-14T21:10:48.905Z,6.50
2022-11-14T21:13:54.822Z,7.30
2022-11-14T21:16:41.043Z,7.40
2022-11-14T21:19:29.339Z,6.40
2022-11-14T21:22:15.026Z,5.10
2022-11-14T21:25:02.046Z,6.50
2022-11-14T21:27:47.543Z,7.70
2022-11-14T21:30:33.444Z,7.10
2022-11-14T21:33:19.397Z,7.60
2022-11-14T21:36:22.978Z,7.10
2022-11-14T21:39:15.549Z,7.00
2022-11-14T21:42:02.086Z,6.50
2022-11-14T21:44:48.257Z,5.80
2022-11-14T21:47:34.184Z,6.40
2022-11-14T21:50:19.826Z,9.00
2022-11-14T21:53:16.097Z,9.10
2022-11-14T21:56:27.771Z,11.00
2022-11-14T21:59:16.689Z,7.20
2022-11-14T22:02:21.543Z,8.50
2022-11-14T22:05:08.669Z,7.80
2022-11-14T22:07:54.365Z,7.90
2022-11-14T22:10:39.886Z,5.50
2022-11-14T22:13:25.481Z,6.80
2022-11-14T22:16:11.702Z,8.40
2022-11-14T22:19:03.516Z,4.50
2022-11-14T22:21:50.816Z,7.40
2022-11-14T22:24:36.640Z,6.20
2022-11-14T22:27:22.316Z,6.90
2022-11-14T22:30:08.820Z,6.10
2022-11-14T22:32:54.708Z,6.60
2022-11-14T22:35:40.215Z,7.40
2022-11-14T22:38:25.553Z,7.20
2022-11-14T22:41:30.464Z,6.20
2022-11-14T22:44:18.028Z,5.40
2022-11-14T22:47:03.713Z,6.70
2022-11-14T22:49:49.395Z,7.40
2022-11-14T22:52:35.291Z,8.10
2022-11-14T22:55:21.279Z,8.40
2022-11-14T22:58:07.040Z,9.00
2022-11-14T23:00:53.050Z,7.60
2022-11-14T23:03:40.152Z,8.30
2022-11-14T23:06:26.472Z,9.10
2022-11-14T23:09:12.462Z,8.00
2022-11-14T23:11:58.052Z,7.40
2022-11-14T23:14:43.754Z,8.70
2022-11-14T23:17:29.389Z,8.00
2022-11-14T23:20:16.626Z,7.20
2022-11-14T23:23:03.587Z,8.00
2022-11-14T23:25:48.861Z,10.60
2022-11-14T23:28:34.345Z,10.20
2022-11-14T23:31:23.364Z,7.70
2022-11-14T23:34:09.145Z,9.40
2022-11-14T23:36:54.630Z,6.10
2022-11-14T23:39:40.102Z,7.10
2022-11-14T23:42:25.716Z,6.00
2022-11-14T23:45:11.502Z,7.10
2022-11-14T23:47:57.362Z,8.20
2022-11-14T23:50:43.601Z,7.30
2022-11-14T23:53:29.328Z,6.60
2022-11-14T23:56:15.135Z,8.80
2022-11-14T23:59:00.834Z,7.10
